sensor_id;sensor_type;location;lat;lon;timestamp;pressure;altitude;pressure_sealevel;temperature;humidity
50380;BME280;37474;59.468;18.040;2022-11-06T00:00:42;100720.69;;;6.56;100.00
50380;BME280;37474;59.468;18.040;2022-11-06T00:03:10;100689.31;;;6.45;100.00
50380;BME280;37474;59.468;18.040;2022-11-06T00:05:41;100731.00;;;6.80;100.00
50380;BME280;37474;59.468;18.040;2022-11-06T00:08:28;100712.38;;;6.48;100.00
50380;BME280;37474;59.468;18.040;2022-11-06T00:10:59;100738.28;;;6.69;100.00
50380;BME280;37474;59.468;18.040;2022-11-06T00:13:29;100674.47;;;6.27;100.00
50380;BME280;37474;59.468;18.040;2022-11-06T00:16:03;100748.47;;;6.72;100.00
50380;BME280;37474;59.468;18.040;2022-11-06T00:18:31;100725.78;;;6.58;100.00
50380;BME280;37474;59.468;18.040;2022-11-06T00:21:07;100727.84;;;6.72;100.00
50380;BME280;37474;59.468;18.040;2022-11-06T00:23:35;100744.19;;;6.72;100.00
50380;BME280;37474;59.468;18.040;2022-11-06T00:26:05;100738.84;;;6.77;100.00
50380;BME280;37474;59.468;18.040;2022-11-06T00:28:37;100742.00;;;6.60;100.00
50380;BME280;37474;59.468;18.040;2022-11-06T00:31:06;100676.19;;;6.28;100.00
50380;BME280;37474;59.468;18.040;2022-11-06T00:33:36;100744.22;;;6.71;100.00
50380;BME280;37474;59.468;18.040;2022-11-06T00:36:09;100739.34;;;6.63;100.00
50380;BME280;37474;59.468;18.040;2022-11-06T00:38:40;100739.50;;;6.58;100.00
50380;BME280;37474;59.468;18.040;2022-11-06T00:41:10;100728.50;;;6.53;100.00
50380;BME280;37474;59.468;18.040;2022-11-06T00:43:40;100696.56;;;6.34;100.00
50380;BME280;37474;59.468;18.040;2022-11-06T00:46:11;100669.25;;;6.30;100.00
50380;BME280;37474;59.468;18.040;2022-11-06T00:48:39;100693.16;;;6.33;100.00
50380;BME280;37474;59.468;18.040;2022-11-06T00:51:12;100698.97;;;6.14;100.00
50380;BME280;37474;59.468;18.040;2022-11-06T00:53:42;100691.25;;;6.14;100.00
50380;BME280;37474;59.468;18.040;2022-11-06T00:56:13;100721.84;;;6.23;100.00
50380;BME280;37474;59.468;18.040;2022-11-06T00:58:45;100741.66;;;6.46;100.00
50380;BME280;37474;59.468;18.040;2022-11-06T01:01:15;100740.50;;;6.29;100.00
50380;BME280;37474;59.468;18.040;2022-11-06T01:03:51;100740.59;;;6.26;100.00
50380;BME280;37474;59.468;18.040;2022-11-06T01:06:21;100743.28;;;6.23;100.00
50380;BME280;37474;59.468;18.040;2022-11-06T01:08:52;100713.03;;;6.03;100.00
50380;BME280;37474;59.468;18.040;2022-11-06T01:11:21;100745.25;;;6.15;100.00
50380;BME280;37474;59.468;18.040;2022-11-06T01:13:57;100750.53;;;6.11;100.00
50380;BME280;37474;59.468;18.040;2022-11-06T01:16:28;100716.88;;;5.90;100.00
50380;BME280;37474;59.468;18.040;2022-11-06T01:18:57;100754.31;;;6.00;100.00
50380;BME280;37474;59.468;18.040;2022-11-06T01:21:27;100695.44;;;5.63;100.00
50380;BME280;37474;59.468;18.040;2022-11-06T01:23:59;100746.09;;;5.89;100.00
50380;BME280;37474;59.468;18.040;2022-11-06T01:26:28;100742.63;;;5.90;100.00
50380;BME280;37474;59.468;18.040;2022-11-06T01:29:11;100731.88;;;5.77;100.00
50380;BME280;37474;59.468;18.040;2022-11-06T01:31:39;100693.78;;;5.61;100.00
50380;BME280;37474;59.468;18.040;2022-11-06T01:34:10;100702.06;;;5.70;100.00
50380;BME280;37474;59.468;18.040;2022-11-06T01:36:40;100749.38;;;5.94;100.00
50380;BME280;37474;59.468;18.040;2022-11-06T01:39:13;100742.00;;;5.82;100.00
50380;BME280;37474;59.468;18.040;2022-11-06T01:41:43;100745.72;;;6.01;100.00
50380;BME280;37474;59.468;18.040;2022-11-06T01:47:04;100746.59;;;6.00;100.00
50380;BME280;37474;59.468;18.040;2022-11-06T01:49:45;100739.19;;;5.91;100.00
50380;BME280;37474;59.468;18.040;2022-11-06T01:52:15;100734.34;;;5.80;100.00
50380;BME280;37474;59.468;18.040;2022-11-06T01:54:45;100740.44;;;5.78;100.00
50380;BME280;37474;59.468;18.040;2022-11-06T01:57:17;100715.38;;;5.56;100.00
50380;BME280;37474;59.468;18.040;2022-11-06T01:59:45;100731.84;;;5.49;100.00
50380;BME280;37474;59.468;18.040;2022-11-06T02:02:15;100689.50;;;5.05;100.00
50380;BME280;37474;59.468;18.040;2022-11-06T02:04:47;100702.06;;;5.14;100.00
50380;BME280;37474;59.468;18.040;2022-11-06T02:07:16;100697.88;;;5.12;100.00
50380;BME280;37474;59.468;18.040;2022-11-06T02:09:45;100703.56;;;5.21;100.00
50380;BME280;37474;59.468;18.040;2022-11-06T02:12:20;100749.63;;;5.29;100.00
50380;BME280;37474;59.468;18.040;2022-11-06T02:14:59;100745.06;;;5.39;100.00
50380;BME280;37474;59.468;18.040;2022-11-06T02:17:39;100731.19;;;5.15;100.00
50380;BME280;37474;59.468;18.040;2022-11-06T02:20:13;100750.00;;;5.17;100.00
50380;BME280;37474;59.468;18.040;2022-11-06T02:25:45;100739.16;;;5.35;100.00
50380;BME280;37474;59.468;18.040;2022-11-06T02:28:21;100743.66;;;5.28;100.00
50380;BME280;37474;59.468;18.040;2022-11-06T02:30:52;100700.97;;;4.93;100.00
50380;BME280;37474;59.468;18.040;2022-11-06T02:33:24;100731.38;;;5.09;100.00
50380;BME280;37474;59.468;18.040;2022-11-06T02:35:57;100727.53;;;4.92;100.00
50380;BME280;37474;59.468;18.040;2022-11-06T02:38:33;100732.81;;;4.88;100.00
50380;BME280;37474;59.468;18.040;2022-11-06T02:41:06;100698.84;;;4.78;100.00
50380;BME280;37474;59.468;18.040;2022-11-06T02:43:43;100726.53;;;4.98;100.00
50380;BME280;37474;59.468;18.040;2022-11-06T02:46:16;100723.25;;;4.93;100.00
50380;BME280;37474;59.468;18.040;2022-11-06T02:48:50;100669.38;;;4.60;100.00
50380;BME280;37474;59.468;18.040;2022-11-06T02:51:23;100685.72;;;4.58;100.00
50380;BME280;37474;59.468;18.040;2022-11-06T02:53:57;100703.81;;;4.84;100.00
50380;BME280;37474;59.468;18.040;2022-11-06T02:56:29;100684.59;;;4.68;100.00
50380;BME280;37474;59.468;18.040;2022-11-06T02:59:04;100669.06;;;4.71;100.00
50380;BME280;37474;59.468;18.040;2022-11-06T03:01:38;100715.38;;;4.99;100.00
50380;BME280;37474;59.468;18.040;2022-11-06T03:04:15;100717.56;;;4.83;100.00
50380;BME280;37474;59.468;18.040;2022-11-06T03:06:46;100694.03;;;4.66;100.00
50380;BME280;37474;59.468;18.040;2022-11-06T03:09:20;100647.38;;;4.52;100.00
50380;BME280;37474;59.468;18.040;2022-11-06T03:11:56;100719.47;;;4.75;100.00
50380;BME280;37474;59.468;18.040;2022-11-06T03:14:33;100718.69;;;4.73;100.00
50380;BME280;37474;59.468;18.040;2022-11-06T03:17:09;100714.97;;;4.83;100.00
50380;BME280;37474;59.468;18.040;2022-11-06T03:19:45;100671.09;;;4.60;100.00
50380;BME280;37474;59.468;18.040;2022-11-06T03:22:20;100712.97;;;4.93;100.00
50380;BME280;37474;59.468;18.040;2022-11-06T03:24:57;100669.38;;;4.60;100.00
50380;BME280;37474;59.468;18.040;2022-11-06T03:27:32;100663.31;;;4.63;100.00
50380;BME280;37474;59.468;18.040;2022-11-06T03:30:06;100701.38;;;4.80;100.00
50380;BME280;37474;59.468;18.040;2022-11-06T03:32:46;100652.13;;;4.34;100.00
50380;BME280;37474;59.468;18.040;2022-11-06T03:35:21;100699.72;;;4.77;100.00
50380;BME280;37474;59.468;18.040;2022-11-06T03:37:53;100712.59;;;4.75;100.00
50380;BME280;37474;59.468;18.040;2022-11-06T03:40:30;100713.78;;;4.64;100.00
50380;BME280;37474;59.468;18.040;2022-11-06T03:43:03;100633.94;;;4.42;100.00
50380;BME280;37474;59.468;18.040;2022-11-06T03:45:38;100714.56;;;4.66;100.00
50380;BME280;37474;59.468;18.040;2022-11-06T03:48:09;100700.06;;;4.65;100.00
50380;BME280;37474;59.468;18.040;2022-11-06T03:50:45;100687.81;;;4.74;100.00
50380;BME280;37474;59.468;18.040;2022-11-06T03:53:19;100667.59;;;4.31;100.00
50380;BME280;37474;59.468;18.040;2022-11-06T03:55:53;100712.72;;;4.72;100.00
50380;BME280;37474;59.468;18.040;2022-11-06T03:58:23;100711.66;;;4.80;100.00
50380;BME280;37474;59.468;18.040;2022-11-06T04:00:56;100719.09;;;4.89;100.00
50380;BME280;37474;59.468;18.040;2022-11-06T04:03:29;100708.19;;;4.81;100.00
50380;BME280;37474;59.468;18.040;2022-11-06T04:06:08;100707.56;;;4.72;100.00
50380;BME280;37474;59.468;18.040;2022-11-06T04:08:37;100657.88;;;4.42;100.00
50380;BME280;37474;59.468;18.040;2022-11-06T04:11:26;100721.31;;;5.01;100.00
50380;BME280;37474;59.468;18.040;2022-11-06T04:14:14;100720.06;;;4.85;100.00
50380;BME280;37474;59.468;18.040;2022-11-06T04:16:47;100723.47;;;4.85;100.00
50380;BME280;37474;59.468;18.040;2022-11-06T04:19:18;100686.31;;;4.67;100.00
50380;BME280;37474;59.468;18.040;2022-11-06T04:21:56;100720.97;;;4.84;100.00
50380;BME280;37474;59.468;18.040;2022-11-06T04:24:38;100713.59;;;5.01;100.00
50380;BME280;37474;59.468;18.040;2022-11-06T04:27:34;100672.47;;;4.73;100.00
50380;BME280;37474;59.468;18.040;2022-11-06T04:30:09;100718.25;;;5.18;100.00
50380;BME280;37474;59.468;18.040;2022-11-06T04:32:52;100665.47;;;4.78;100.00
50380;BME280;37474;59.468;18.040;2022-11-06T04:35:32;100685.13;;;5.09;100.00
50380;BME280;37474;59.468;18.040;2022-11-06T04:38:07;100693.53;;;5.14;100.00
50380;BME280;37474;59.468;18.040;2022-11-06T04:40:44;100652.97;;;4.95;100.00
50380;BME280;37474;59.468;18.040;2022-11-06T04:43:19;100701.69;;;5.28;100.00
50380;BME280;37474;59.468;18.040;2022-11-06T04:45:52;100705.78;;;5.34;100.00
50380;BME280;37474;59.468;18.040;2022-11-06T04:48:23;100681.47;;;5.16;100.00
50380;BME280;37474;59.468;18.040;2022-11-06T04:50:55;100711.25;;;5.23;100.00
50380;BME280;37474;59.468;18.040;2022-11-06T04:53:25;100710.97;;;5.32;100.00
50380;BME280;37474;59.468;18.040;2022-11-06T04:56:00;100644.69;;;4.86;100.00
50380;BME280;37474;59.468;18.040;2022-11-06T04:58:28;100709.16;;;5.36;100.00
50380;BME280;37474;59.468;18.040;2022-11-06T05:00:56;100686.41;;;5.23;100.00
50380;BME280;37474;59.468;18.040;2022-11-06T05:03:27;100695.13;;;5.18;100.00
50380;BME280;37474;59.468;18.040;2022-11-06T05:05:55;100716.53;;;5.46;100.00
50380;BME280;37474;59.468;18.040;2022-11-06T05:08:23;100678.88;;;5.17;100.00
50380;BME280;37474;59.468;18.040;2022-11-06T05:10:53;100710.22;;;5.56;100.00
50380;BME280;37474;59.468;18.040;2022-11-06T05:13:21;100688.19;;;5.48;100.00
50380;BME280;37474;59.468;18.040;2022-11-06T05:15:56;100700.34;;;5.44;100.00
50380;BME280;37474;59.468;18.040;2022-11-06T05:18:26;100706.91;;;5.53;100.00
50380;BME280;37474;59.468;18.040;2022-11-06T05:20:53;100702.00;;;5.45;100.00
50380;BME280;37474;59.468;18.040;2022-11-06T05:23:35;100714.75;;;5.48;100.00
50380;BME280;37474;59.468;18.040;2022-11-06T05:26:04;100700.97;;;5.23;100.00
50380;BME280;37474;59.468;18.040;2022-11-06T05:28:32;100716.78;;;5.39;100.00
50380;BME280;37474;59.468;18.040;2022-11-06T05:31:03;100695.53;;;5.32;100.00
50380;BME280;37474;59.468;18.040;2022-11-06T05:33:32;100720.19;;;5.39;100.00
50380;BME280;37474;59.468;18.040;2022-11-06T05:36:01;100662.25;;;4.99;100.00
50380;BME280;37474;59.468;18.040;2022-11-06T05:38:32;100716.50;;;5.48;100.00
50380;BME280;37474;59.468;18.040;2022-11-06T05:41:01;100720.19;;;5.39;100.00
50380;BME280;37474;59.468;18.040;2022-11-06T05:43:29;100713.19;;;5.44;100.00
50380;BME280;37474;59.468;18.040;2022-11-06T05:45:59;100708.03;;;5.44;100.00
50380;BME280;37474;59.468;18.040;2022-11-06T05:48:27;100680.59;;;5.17;100.00
50380;BME280;37474;59.468;18.040;2022-11-06T05:51:03;100712.38;;;5.42;100.00
50380;BME280;37474;59.468;18.040;2022-11-06T05:53:32;100696.16;;;5.40;100.00
50380;BME280;37474;59.468;18.040;2022-11-06T05:56:01;100715.38;;;5.56;100.00
50380;BME280;37474;59.468;18.040;2022-11-06T05:58:31;100693.00;;;5.59;100.00
50380;BME280;37474;59.468;18.040;2022-11-06T06:00:59;100716.22;;;5.57;100.00
50380;BME280;37474;59.468;18.040;2022-11-06T06:03:27;100676.84;;;5.27;100.00
50380;BME280;37474;59.468;18.040;2022-11-06T06:05:57;100721.09;;;5.65;100.00
50380;BME280;37474;59.468;18.040;2022-11-06T06:08:26;100704.09;;;5.33;100.00
50380;BME280;37474;59.468;18.040;2022-11-06T06:10:56;100734.59;;;5.45;100.00
50380;BME280;37474;59.468;18.040;2022-11-06T06:13:24;100679.47;;;5.25;100.00
50380;BME280;37474;59.468;18.040;2022-11-06T06:15:52;100647.84;;;4.95;100.00
50380;BME280;37474;59.468;18.040;2022-11-06T06:18:22;100721.25;;;5.32;100.00
50380;BME280;37474;59.468;18.040;2022-11-06T06:20:50;100697.59;;;5.21;100.00
50380;BME280;37474;59.468;18.040;2022-11-06T06:23:18;100721.06;;;5.38;100.00
50380;BME280;37474;59.468;18.040;2022-11-06T06:25:49;100724.50;;;5.39;100.00
50380;BME280;37474;59.468;18.040;2022-11-06T06:28:16;100720.00;;;5.45;100.00
50380;BME280;37474;59.468;18.040;2022-11-06T06:30:44;100662.03;;;5.07;100.00
50380;BME280;37474;59.468;18.040;2022-11-06T06:33:14;100731.63;;;5.29;100.00
50380;BME280;37474;59.468;18.040;2022-11-06T06:35:42;100729.31;;;5.20;100.00
50380;BME280;37474;59.468;18.040;2022-11-06T06:38:10;100719.81;;;5.23;100.00
50380;BME280;37474;59.468;18.040;2022-11-06T06:40:40;100739.81;;;5.42;100.00
50380;BME280;37474;59.468;18.040;2022-11-06T06:43:09;100739.28;;;5.30;100.00
50380;BME280;37474;59.468;18.040;2022-11-06T06:45:37;100742.13;;;5.21;100.00
50380;BME280;37474;59.468;18.040;2022-11-06T06:48:07;100726.56;;;5.27;100.00
50380;BME280;37474;59.468;18.040;2022-11-06T06:50:35;100733.06;;;5.38;100.00
50380;BME280;37474;59.468;18.040;2022-11-06T06:53:03;100729.59;;;5.40;100.00
50380;BME280;37474;59.468;18.040;2022-11-06T06:55:34;100747.47;;;5.43;100.00
50380;BME280;37474;59.468;18.040;2022-11-06T06:58:04;100698.00;;;5.07;100.00
50380;BME280;37474;59.468;18.040;2022-11-06T07:00:33;100746.41;;;5.21;100.00
50380;BME280;37474;59.468;18.040;2022-11-06T07:03:01;100670.31;;;4.87;100.00
50380;BME280;37474;59.468;18.040;2022-11-06T07:05:31;100735.28;;;5.22;100.00
50380;BME280;37474;59.468;18.040;2022-11-06T07:07:59;100660.63;;;4.97;100.00
50380;BME280;37474;59.468;18.040;2022-11-06T07:10:27;100702.72;;;5.22;100.00
50380;BME280;37474;59.468;18.040;2022-11-06T07:12:59;100728.69;;;5.41;100.00
50380;BME280;37474;59.468;18.040;2022-11-06T07:15:27;100742.00;;;5.55;100.00
50380;BME280;37474;59.468;18.040;2022-11-06T07:18:04;100746.25;;;5.56;100.00
50380;BME280;37474;59.468;18.040;2022-11-06T07:20:33;100744.97;;;5.70;100.00
50380;BME280;37474;59.468;18.040;2022-11-06T07:23:06;100752.19;;;5.85;100.00
50380;BME280;37474;59.468;18.040;2022-11-06T07:25:35;100748.75;;;5.86;100.00
50380;BME280;37474;59.468;18.040;2022-11-06T07:28:04;100747.31;;;5.77;100.00
50380;BME280;37474;59.468;18.040;2022-11-06T07:30:35;100744.75;;;5.76;100.00
50380;BME280;37474;59.468;18.040;2022-11-06T07:33:04;100725.91;;;5.75;100.00
50380;BME280;37474;59.468;18.040;2022-11-06T07:35:32;100696.22;;;5.65;100.00
50380;BME280;37474;59.468;18.040;2022-11-06T07:38:03;100749.47;;;6.18;100.00
50380;BME280;37474;59.468;18.040;2022-11-06T07:40:32;100748.66;;;6.16;100.00
50380;BME280;37474;59.468;18.040;2022-11-06T07:43:06;100676.63;;;5.88;100.00
50380;BME280;37474;59.468;18.040;2022-11-06T07:45:37;100743.84;;;6.31;100.00
50380;BME280;37474;59.468;18.040;2022-11-06T07:48:07;100685.34;;;6.10;100.00
50380;BME280;37474;59.468;18.040;2022-11-06T07:50:35;100689.25;;;6.22;100.00
50380;BME280;37474;59.468;18.040;2022-11-06T07:53:03;100691.38;;;6.35;100.00
50380;BME280;37474;59.468;18.040;2022-11-06T07:55:33;100730.44;;;6.72;100.00
50380;BME280;37474;59.468;18.040;2022-11-06T07:58:07;100705.47;;;6.74;100.00
50380;BME280;37474;59.468;18.040;2022-11-06T08:00:37;100682.97;;;6.54;100.00
50380;BME280;37474;59.468;18.040;2022-11-06T08:03:07;100731.38;;;6.94;100.00
50380;BME280;37474;59.468;18.040;2022-11-06T08:05:34;100696.00;;;6.74;100.00
50380;BME280;37474;59.468;18.040;2022-11-06T08:08:04;100741.78;;;7.14;100.00
50380;BME280;37474;59.468;18.040;2022-11-06T08:10:32;100754.19;;;7.27;100.00
50380;BME280;37474;59.468;18.040;2022-11-06T08:13:02;100742.78;;;7.34;100.00
50380;BME280;37474;59.468;18.040;2022-11-06T08:15:30;100737.19;;;7.23;100.00
50380;BME280;37474;59.468;18.040;2022-11-06T08:17:58;100747.78;;;7.38;100.00
50380;BME280;37474;59.468;18.040;2022-11-06T08:20:27;100730.41;;;7.42;100.00
50380;BME280;37474;59.468;18.040;2022-11-06T08:22:58;100730.41;;;7.42;100.00
50380;BME280;37474;59.468;18.040;2022-11-06T08:25:27;100730.50;;;7.62;100.00
50380;BME280;37474;59.468;18.040;2022-11-06T08:27:55;100727.66;;;7.68;100.00
50380;BME280;37474;59.468;18.040;2022-11-06T08:30:24;100717.75;;;7.80;100.00
50380;BME280;37474;59.468;18.040;2022-11-06T08:32:52;100719.06;;;7.90;100.00
50380;BME280;37474;59.468;18.040;2022-11-06T08:35:21;100714.94;;;7.86;100.00
50380;BME280;37474;59.468;18.040;2022-11-06T08:37:52;100691.25;;;7.54;100.00
50380;BME280;37474;59.468;18.040;2022-11-06T08:40:20;100723.34;;;7.91;100.00
50380;BME280;37474;59.468;18.040;2022-11-06T08:42:57;100667.97;;;7.56;100.00
50380;BME280;37474;59.468;18.040;2022-11-06T08:45:25;100667.84;;;7.59;100.00
50380;BME280;37474;59.468;18.040;2022-11-06T08:47:54;100708.34;;;7.79;100.00
50380;BME280;37474;59.468;18.040;2022-11-06T08:50:21;100723.09;;;7.97;100.00
50380;BME280;37474;59.468;18.040;2022-11-06T08:52:51;100723.25;;;7.92;100.00
50380;BME280;37474;59.468;18.040;2022-11-06T08:55:18;100720.84;;;7.88;100.00
50380;BME280;37474;59.468;18.040;2022-11-06T08:57:48;100715.69;;;7.67;100.00
50380;BME280;37474;59.468;18.040;2022-11-06T09:00:16;100708.22;;;7.60;100.00
50380;BME280;37474;59.468;18.040;2022-11-06T09:02:46;100708.78;;;7.68;100.00
50380;BME280;37474;59.468;18.040;2022-11-06T09:05:14;100703.13;;;7.58;100.00
50380;BME280;37474;59.468;18.040;2022-11-06T09:07:42;100694.88;;;7.50;100.00
50380;BME280;37474;59.468;18.040;2022-11-06T09:10:13;100716.38;;;7.71;100.00
50380;BME280;37474;59.468;18.040;2022-11-06T09:12:41;100714.03;;;7.65;100.00
50380;BME280;37474;59.468;18.040;2022-11-06T09:15:09;100684.47;;;7.52;100.00
50380;BME280;37474;59.468;18.040;2022-11-06T09:17:41;100697.22;;;7.77;100.00
50380;BME280;37474;59.468;18.040;2022-11-06T09:20:10;100714.16;;;7.84;100.00
50380;BME280;37474;59.468;18.040;2022-11-06T09:22:38;100697.19;;;7.78;100.00
50380;BME280;37474;59.468;18.040;2022-11-06T09:25:08;100669.66;;;7.57;100.00
50380;BME280;37474;59.468;18.040;2022-11-06T09:27:45;100711.19;;;7.93;100.00
50380;BME280;37474;59.468;18.040;2022-11-06T09:30:17;100705.19;;;7.92;100.00
50380;BME280;37474;59.468;18.040;2022-11-06T09:32:46;100692.44;;;7.89;100.00
50380;BME280;37474;59.468;18.040;2022-11-06T09:35:14;100692.09;;;7.97;100.00
50380;BME280;37474;59.468;18.040;2022-11-06T09:37:45;100687.53;;;8.04;100.00
50380;BME280;37474;59.468;18.040;2022-11-06T09:40:18;100689.97;;;8.07;100.00
50380;BME280;37474;59.468;18.040;2022-11-06T09:42:59;100675.16;;;8.12;100.00
50380;BME280;37474;59.468;18.040;2022-11-06T09:45:31;100675.16;;;8.12;100.00
50380;BME280;37474;59.468;18.040;2022-11-06T09:48:12;100675.88;;;8.36;100.00
50380;BME280;37474;59.468;18.040;2022-11-06T09:50:43;100677.97;;;8.26;100.00
50380;BME280;37474;59.468;18.040;2022-11-06T09:53:19;100683.09;;;8.28;100.00
50380;BME280;37474;59.468;18.040;2022-11-06T09:55:50;100634.66;;;7.92;100.00
50380;BME280;37474;59.468;18.040;2022-11-06T09:58:27;100629.69;;;7.87;100.00
50380;BME280;37474;59.468;18.040;2022-11-06T10:01:02;100672.09;;;8.23;100.00
50380;BME280;37474;59.468;18.040;2022-11-06T10:03:39;100663.53;;;8.22;100.00
50380;BME280;37474;59.468;18.040;2022-11-06T10:06:08;100646.41;;;8.19;100.00
50380;BME280;37474;59.468;18.040;2022-11-06T10:08:40;100634.66;;;8.12;100.00
50380;BME280;37474;59.468;18.040;2022-11-06T10:11:27;100667.84;;;8.42;100.00
50380;BME280;37474;59.468;18.040;2022-11-06T10:14:06;100616.25;;;8.20;100.00
50380;BME280;37474;59.468;18.040;2022-11-06T10:16:43;100663.88;;;8.54;100.00
50380;BME280;37474;59.468;18.040;2022-11-06T10:19:21;100659.91;;;8.46;100.00
50380;BME280;37474;59.468;18.040;2022-11-06T10:21:56;100663.69;;;8.58;100.00
50380;BME280;37474;59.468;18.040;2022-11-06T10:24:32;100658.88;;;8.69;100.00
50380;BME280;37474;59.468;18.040;2022-11-06T10:27:09;100654.91;;;8.81;100.00
50380;BME280;37474;59.468;18.040;2022-11-06T10:29:57;100654.63;;;8.87;100.00
50380;BME280;37474;59.468;18.040;2022-11-06T10:32:48;100628.94;;;8.84;100.00
50380;BME280;37474;59.468;18.040;2022-11-06T10:35:24;100606.63;;;8.63;100.00
50380;BME280;37474;59.468;18.040;2022-11-06T10:37:57;100625.34;;;8.87;100.00
50380;BME280;37474;59.468;18.040;2022-11-06T10:40:30;100645.13;;;8.88;100.00
50380;BME280;37474;59.468;18.040;2022-11-06T10:43:07;100652.94;;;8.86;100.00
50380;BME280;37474;59.468;18.040;2022-11-06T10:45:47;100648.28;;;8.94;100.00
50380;BME280;37474;59.468;18.040;2022-11-06T10:48:22;100637.16;;;9.11;100.00
50380;BME280;37474;59.468;18.040;2022-11-06T10:51:21;100627.34;;;9.18;100.00
50380;BME280;37474;59.468;18.040;2022-11-06T10:53:59;100587.13;;;8.93;100.00
50380;BME280;37474;59.468;18.040;2022-11-06T10:56:48;100595.25;;;8.86;100.00
50380;BME280;37474;59.468;18.040;2022-11-06T10:59:24;100630.38;;;9.09;100.00
50380;BME280;37474;59.468;18.040;2022-11-06T11:01:55;100626.47;;;9.00;100.00
50380;BME280;37474;59.468;18.040;2022-11-06T11:04:23;100625.31;;;8.88;100.00
50380;BME280;37474;59.468;18.040;2022-11-06T11:06:51;100603.63;;;8.91;100.00
50380;BME280;37474;59.468;18.040;2022-11-06T11:09:28;100607.25;;;9.06;100.00
50380;BME280;37474;59.468;18.040;2022-11-06T11:11:59;100606.84;;;8.96;100.00
50380;BME280;37474;59.468;18.040;2022-11-06T11:14:29;100609.75;;;9.07;100.00
50380;BME280;37474;59.468;18.040;2022-11-06T11:17:00;100606.97;;;9.12;100.00
50380;BME280;37474;59.468;18.040;2022-11-06T11:19:39;100598.06;;;9.17;100.00
50380;BME280;37474;59.468;18.040;2022-11-06T11:22:18;100564.72;;;8.94;100.00
50380;BME280;37474;59.468;18.040;2022-11-06T11:24:59;100597.56;;;9.28;100.00
50380;BME280;37474;59.468;18.040;2022-11-06T11:27:29;100572.53;;;9.29;100.00
50380;BME280;37474;59.468;18.040;2022-11-06T11:30:04;100578.63;;;9.62;100.00
50380;BME280;37474;59.468;18.040;2022-11-06T11:32:33;100586.91;;;9.86;100.00
50380;BME280;37474;59.468;18.040;2022-11-06T11:35:10;100503.91;;;9.39;100.00
50380;BME280;37474;59.468;18.040;2022-11-06T11:37:38;100576.47;;;9.88;100.00
50380;BME280;37474;59.468;18.040;2022-11-06T11:40:31;100559.44;;;9.84;100.00
50380;BME280;37474;59.468;18.040;2022-11-06T11:43:18;100573.59;;;9.94;100.00
50380;BME280;37474;59.468;18.040;2022-11-06T11:46:15;100562.91;;;9.83;100.00
50380;BME280;37474;59.468;18.040;2022-11-06T11:48:46;100559.44;;;9.84;100.00
50380;BME280;37474;59.468;18.040;2022-11-06T11:51:28;100509.19;;;9.53;100.00
50380;BME280;37474;59.468;18.040;2022-11-06T11:54:00;100508.16;;;9.40;100.00
50380;BME280;37474;59.468;18.040;2022-11-06T11:56:30;100552.78;;;9.95;100.00
50380;BME280;37474;59.468;18.040;2022-11-06T11:59:20;100560.31;;;10.00;100.00
50380;BME280;37474;59.468;18.040;2022-11-06T12:01:49;100550.41;;;9.91;100.00
50380;BME280;37474;59.468;18.040;2022-11-06T12:04:25;100548.75;;;9.90;100.00
50380;BME280;37474;59.468;18.040;2022-11-06T12:06:57;100562.53;;;9.90;100.00
50380;BME280;37474;59.468;18.040;2022-11-06T12:09:27;100498.09;;;9.51;100.00
50380;BME280;37474;59.468;18.040;2022-11-06T12:11:58;100528.31;;;9.68;100.00
50380;BME280;37474;59.468;18.040;2022-11-06T12:14:30;100537.03;;;9.65;100.00
50380;BME280;37474;59.468;18.040;2022-11-06T12:17:07;100485.50;;;9.28;100.00
50380;BME280;37474;59.468;18.040;2022-11-06T12:19:41;100537.53;;;9.56;100.00
50380;BME280;37474;59.468;18.040;2022-11-06T12:22:18;100536.22;;;9.47;100.00
50380;BME280;37474;59.468;18.040;2022-11-06T12:24:52;100531.44;;;9.57;100.00
50380;BME280;37474;59.468;18.040;2022-11-06T12:27:25;100509.50;;;9.47;100.00
50380;BME280;37474;59.468;18.040;2022-11-06T12:30:01;100452.00;;;9.07;100.00
50380;BME280;37474;59.468;18.040;2022-11-06T12:35:38;100527.09;;;9.58;100.00
50380;BME280;37474;59.468;18.040;2022-11-06T12:38:16;100515.91;;;9.40;100.00
50380;BME280;37474;59.468;18.040;2022-11-06T12:40:48;100523.81;;;9.37;100.00
50380;BME280;37474;59.468;18.040;2022-11-06T12:43:22;100521.44;;;9.32;100.00
50380;BME280;37474;59.468;18.040;2022-11-06T12:46:02;100522.59;;;9.09;100.00
50380;BME280;37474;59.468;18.040;2022-11-06T12:51:32;100475.78;;;8.79;100.00
50380;BME280;37474;59.468;18.040;2022-11-06T12:54:18;100469.56;;;8.83;100.00
50380;BME280;37474;59.468;18.040;2022-11-06T12:56:56;100518.50;;;9.05;100.00
50380;BME280;37474;59.468;18.040;2022-11-06T12:59:36;100513.13;;;8.91;100.00
50380;BME280;37474;59.468;18.040;2022-11-06T13:02:19;100511.59;;;8.87;100.00
50380;BME280;37474;59.468;18.040;2022-11-06T13:04:54;100505.38;;;8.91;100.00
50380;BME280;37474;59.468;18.040;2022-11-06T13:10:43;100447.63;;;8.37;100.00
50380;BME280;37474;59.468;18.040;2022-11-06T13:13:39;100500.94;;;8.76;100.00
50380;BME280;37474;59.468;18.040;2022-11-06T13:16:20;100498.84;;;8.65;100.00
50380;BME280;37474;59.468;18.040;2022-11-06T13:18:55;100493.97;;;8.59;100.00
50380;BME280;37474;59.468;18.040;2022-11-06T13:21:50;100490.97;;;8.30;100.00
50380;BME280;37474;59.468;18.040;2022-11-06T13:24:29;100484.34;;;8.43;100.00